KEAN/EAN METAR and TAF weather

Enter ICAO airport designator
Station Type Date Time Source
KEAN METAR 2019/02/23 17:15 UTC NOAA

KEAN 231715Z AUTO 21010G18KT 10SM CLR M04/M14 A2990 RMK AO2 T10401138


Station Type Date Time Source
KEAN Decoded METAR 2019/02/23 17:15 UTC NOAA

Station name not available
Feb 23, 2019 - 12:15 PM EST / 2019.02.23 1715 UTC
Wind: from the SSW (210 degrees) at 12 MPH (10 KT) gusting to 21 MPH (18 KT):0
Visibility: 10 mile(s):0
Sky conditions: clear
Temperature: 24.8 F (-4.0 C)
Windchill: 14 F (-10 C):1
Dew Point: 7.2 F (-13.8 C)
Relative Humidity: 46%
Pressure (altimeter): 29.9 in. Hg (1012 hPa)
ob: KEAN 231715Z AUTO 21010G18KT 10SM CLR M04/M14 A2990 RMK AO2 T10401138
cycle: 17

Station Type Date Time Source
KEAN TAF UTC NOAA

Error!


Example: see airport list